createdAt,value
2019-05-28T00:00:01.676Z,21.80
2019-05-28T00:02:17.884Z,21.70
2019-05-28T00:04:44.058Z,21.70
2019-05-28T00:07:10.519Z,21.70
2019-05-28T00:09:36.701Z,21.70
2019-05-28T00:12:03.155Z,21.70
2019-05-28T00:14:29.412Z,21.70
2019-05-28T00:16:55.600Z,21.70
2019-05-28T00:19:21.743Z,21.60
2019-05-28T00:21:47.926Z,21.60
2019-05-28T00:24:14.086Z,21.60
2019-05-28T00:26:47.020Z,21.60
2019-05-28T00:29:13.179Z,21.60
2019-05-28T00:31:39.373Z,21.60
2019-05-28T00:34:05.535Z,21.60
2019-05-28T00:36:31.706Z,21.60
2019-05-28T00:38:58.127Z,21.50
2019-05-28T00:41:24.280Z,21.50
2019-05-28T00:43:50.442Z,21.50
2019-05-28T00:46:16.808Z,21.50
2019-05-28T00:48:42.955Z,21.40
2019-05-28T00:51:09.236Z,21.40
2019-05-28T00:53:36.120Z,21.40
2019-05-28T00:56:02.348Z,21.40
2019-05-28T00:58:29.340Z,21.40
2019-05-28T01:00:55.522Z,21.40
2019-05-28T01:03:22.031Z,21.40
2019-05-28T01:05:48.191Z,21.40
2019-05-28T01:08:14.325Z,21.40
2019-05-28T01:10:42.282Z,21.30
2019-05-28T01:13:08.484Z,21.30
2019-05-28T01:15:34.650Z,21.30
2019-05-28T01:18:00.988Z,21.30
2019-05-28T01:20:27.141Z,21.30
2019-05-28T01:22:53.328Z,21.30
2019-05-28T01:25:19.475Z,21.30
2019-05-28T01:27:45.653Z,21.20
2019-05-28T01:30:12.325Z,21.20
2019-05-28T01:32:38.513Z,21.20
2019-05-28T01:35:05.768Z,21.20
2019-05-28T01:37:31.946Z,21.20
2019-05-28T01:39:58.097Z,21.20
2019-05-28T01:42:24.261Z,21.10
2019-05-28T01:44:50.407Z,21.10
2019-05-28T01:47:16.637Z,21.10
2019-05-28T01:49:42.773Z,21.00
2019-05-28T01:52:08.953Z,21.00
2019-05-28T01:54:35.407Z,21.00
2019-05-28T01:57:02.358Z,21.00
2019-05-28T01:59:28.528Z,21.00
2019-05-28T02:01:54.704Z,21.00
2019-05-28T02:04:20.843Z,20.90
2019-05-28T02:06:47.288Z,20.90
2019-05-28T02:09:13.474Z,20.90
2019-05-28T02:11:39.635Z,20.90
2019-05-28T02:14:05.841Z,20.90
2019-05-28T02:16:31.982Z,20.80
2019-05-28T02:18:58.276Z,20.80
2019-05-28T02:21:24.405Z,20.80
2019-05-28T02:23:50.610Z,20.70
2019-05-28T02:26:16.761Z,20.70
2019-05-28T02:28:42.977Z,20.70
2019-05-28T02:31:09.125Z,20.60
2019-05-28T02:33:35.345Z,20.60
2019-05-28T02:36:01.499Z,20.60
2019-05-28T02:38:27.715Z,20.60
2019-05-28T02:40:54.082Z,20.60
2019-05-28T02:43:20.389Z,20.50
2019-05-28T02:45:46.535Z,20.60
2019-05-28T02:48:12.763Z,20.50
2019-05-28T02:51:00.087Z,20.50
2019-05-28T02:53:34.391Z,20.50
2019-05-28T02:56:00.607Z,20.50
2019-05-28T02:58:30.861Z,20.50
2019-05-28T03:00:57.306Z,20.50
2019-05-28T03:03:24.203Z,20.40
2019-05-28T03:05:50.948Z,20.40
2019-05-28T03:08:19.492Z,20.40
2019-05-28T03:11:02.558Z,20.40
2019-05-28T03:13:13.803Z,20.40
2019-05-28T03:15:45.272Z,20.40
2019-05-28T03:18:11.897Z,20.40
2019-05-28T03:20:39.908Z,20.40
2019-05-28T03:23:09.358Z,20.30
2019-05-28T03:25:38.175Z,20.30
2019-05-28T03:28:04.309Z,20.30
2019-05-28T03:30:30.522Z,20.30
2019-05-28T03:32:56.669Z,20.20
2019-05-28T03:35:23.434Z,20.20
2019-05-28T03:37:51.379Z,20.20
2019-05-28T03:40:40.802Z,20.10
2019-05-28T03:43:07.324Z,20.00
2019-05-28T03:45:33.544Z,20.00
2019-05-28T03:48:00.085Z,19.90
2019-05-28T03:50:26.285Z,19.80
2019-05-28T03:52:52.471Z,19.70
2019-05-28T03:55:18.701Z,19.70
2019-05-28T03:57:44.847Z,19.60
2019-05-28T04:00:11.498Z,19.50
2019-05-28T04:05:11.049Z,19.50
2019-05-28T04:07:37.194Z,19.40
2019-05-28T04:10:06.490Z,19.30
2019-05-28T04:12:32.611Z,19.30
2019-05-28T04:14:58.827Z,19.30
2019-05-28T04:17:25.027Z,19.20
2019-05-28T04:19:51.242Z,19.20
2019-05-28T04:22:17.381Z,19.20
2019-05-28T04:24:43.647Z,19.10
2019-05-28T04:27:09.789Z,19.10
2019-05-28T04:29:36.296Z,19.00
2019-05-28T04:32:02.919Z,19.00
2019-05-28T04:34:29.075Z,19.00
2019-05-28T04:36:55.285Z,18.90
2019-05-28T04:39:21.459Z,18.90
2019-05-28T04:41:47.671Z,18.80
2019-05-28T04:44:13.817Z,18.90
2019-05-28T04:46:40.041Z,18.80
2019-05-28T04:49:06.172Z,18.80
2019-05-28T04:51:32.719Z,18.80
2019-05-28T04:53:58.853Z,18.80
2019-05-28T04:56:25.075Z,18.70
2019-05-28T04:58:51.208Z,18.70
2019-05-28T05:01:17.431Z,18.70
2019-05-28T05:03:43.590Z,18.70
2019-05-28T05:06:09.890Z,18.70
2019-05-28T05:08:36.026Z,18.70
2019-05-28T05:11:02.275Z,18.70
2019-05-28T05:13:28.378Z,18.70
2019-05-28T05:15:54.583Z,18.70
2019-05-28T05:18:20.811Z,18.70
2019-05-28T05:20:47.031Z,18.70
2019-05-28T05:23:13.176Z,18.70
2019-05-28T05:25:39.323Z,18.70
2019-05-28T05:28:05.579Z,18.70
2019-05-28T05:30:32.059Z,18.70
2019-05-28T05:33:16.331Z,18.70
2019-05-28T05:35:26.863Z,18.80
2019-05-28T05:37:53.057Z,18.80
2019-05-28T05:40:19.622Z,18.80
2019-05-28T05:42:45.856Z,18.80
2019-05-28T05:45:12.211Z,18.80
2019-05-28T05:47:38.547Z,18.80
2019-05-28T05:50:06.202Z,18.80
2019-05-28T05:52:32.430Z,18.90
2019-05-28T05:54:58.579Z,18.90
2019-05-28T05:57:24.873Z,18.90
2019-05-28T05:59:51.017Z,18.90
2019-05-28T06:02:17.245Z,19.00
2019-05-28T06:04:43.656Z,19.00
2019-05-28T06:07:09.880Z,19.00
2019-05-28T06:09:36.025Z,19.00
2019-05-28T06:12:02.661Z,19.00
2019-05-28T06:14:28.810Z,19.00
2019-05-28T06:16:55.032Z,19.00
2019-05-28T06:19:21.586Z,19.00
2019-05-28T06:21:47.790Z,19.00
2019-05-28T06:24:13.939Z,19.00
2019-05-28T06:26:40.138Z,19.00
2019-05-28T06:29:06.801Z,19.00
2019-05-28T06:31:33.009Z,18.90
2019-05-28T06:33:59.236Z,18.90
2019-05-28T06:36:25.367Z,18.90
2019-05-28T06:38:51.577Z,18.90
2019-05-28T06:41:17.720Z,18.90
2019-05-28T06:43:43.936Z,18.80
2019-05-28T06:46:10.366Z,18.80
2019-05-28T06:48:36.663Z,18.80
2019-05-28T06:51:03.028Z,18.80
2019-05-28T06:53:29.239Z,18.80
2019-05-28T06:55:55.394Z,18.80
2019-05-28T06:58:38.035Z,18.70
2019-05-28T07:00:49.941Z,18.70
2019-05-28T07:03:16.474Z,18.80
2019-05-28T07:05:43.015Z,18.80
2019-05-28T07:08:09.321Z,18.80
2019-05-28T07:10:35.467Z,18.80
2019-05-28T07:13:01.674Z,18.80
2019-05-28T07:15:27.820Z,18.90
2019-05-28T07:17:54.104Z,18.90
2019-05-28T07:20:20.390Z,18.90
2019-05-28T07:22:46.687Z,18.90
2019-05-28T07:25:13.429Z,19.00
2019-05-28T07:27:39.648Z,19.00
2019-05-28T07:30:06.797Z,19.10
2019-05-28T07:32:33.060Z,19.10
2019-05-28T07:34:59.281Z,19.20
2019-05-28T07:37:25.472Z,19.30
2019-05-28T07:39:51.932Z,19.30
2019-05-28T07:42:31.819Z,19.40
2019-05-28T07:44:46.177Z,19.50
2019-05-28T07:47:12.323Z,19.50
2019-05-28T07:49:38.540Z,19.60
2019-05-28T07:52:04.697Z,19.60
2019-05-28T07:54:31.001Z,19.60
2019-05-28T07:56:57.151Z,19.70
2019-05-28T07:59:23.641Z,19.70
2019-05-28T08:01:49.823Z,19.80
2019-05-28T08:04:16.027Z,19.90
2019-05-28T08:06:54.147Z,20.00
2019-05-28T08:09:10.449Z,20.00
2019-05-28T08:11:36.584Z,20.10
2019-05-28T08:14:03.304Z,20.20
2019-05-28T08:16:29.463Z,20.30
2019-05-28T08:18:55.801Z,20.40
2019-05-28T08:21:21.990Z,20.40
2019-05-28T08:23:48.199Z,20.50
2019-05-28T08:26:14.348Z,20.60
2019-05-28T08:28:40.557Z,20.70
2019-05-28T08:31:15.433Z,20.70
2019-05-28T08:33:35.043Z,20.70
2019-05-28T08:36:01.178Z,20.80
2019-05-28T08:38:27.418Z,20.80
2019-05-28T08:40:53.843Z,20.80
2019-05-28T08:43:20.069Z,20.80
2019-05-28T08:45:46.517Z,20.80
2019-05-28T08:48:12.727Z,20.80
2019-05-28T08:50:38.865Z,20.80
2019-05-28T08:53:05.323Z,20.80
2019-05-28T08:55:31.553Z,20.80
2019-05-28T08:58:01.357Z,20.80
2019-05-28T09:00:42.477Z,20.80
2019-05-28T09:03:09.317Z,20.80
2019-05-28T09:05:35.842Z,20.70
2019-05-28T09:08:02.110Z,20.70
2019-05-28T09:10:28.311Z,20.70
2019-05-28T09:12:54.459Z,20.60
2019-05-28T09:15:21.528Z,20.60
2019-05-28T09:17:48.041Z,20.60
2019-05-28T09:20:14.644Z,20.60
2019-05-28T09:22:40.847Z,20.60
2019-05-28T09:25:08.263Z,20.70
2019-05-28T09:27:34.722Z,20.70
2019-05-28T09:30:00.941Z,20.80
2019-05-28T09:32:27.099Z,20.80
2019-05-28T09:34:53.321Z,20.90
2019-05-28T09:37:19.459Z,20.90
2019-05-28T09:39:45.703Z,21.00
2019-05-28T09:42:11.839Z,21.00
2019-05-28T09:44:38.050Z,21.10
2019-05-28T09:47:04.484Z,21.10
2019-05-28T09:49:30.797Z,21.20
2019-05-28T09:51:57.043Z,21.30
2019-05-28T09:54:23.271Z,21.40
2019-05-28T09:56:49.797Z,21.40
2019-05-28T09:59:16.188Z,21.50
2019-05-28T10:01:42.608Z,21.60
2019-05-28T10:04:08.753Z,21.80
2019-05-28T10:06:37.454Z,22.00
2019-05-28T10:09:05.225Z,22.10
2019-05-28T10:11:31.448Z,22.30
2019-05-28T10:13:57.881Z,22.50
2019-05-28T10:16:24.416Z,22.60
2019-05-28T10:18:50.687Z,22.80
2019-05-28T10:21:19.131Z,22.90
2019-05-28T10:23:44.952Z,23.10
2019-05-28T10:26:11.163Z,23.20
2019-05-28T10:28:37.413Z,23.30
2019-05-28T10:31:04.087Z,23.50
2019-05-28T10:33:30.257Z,23.60
2019-05-28T10:35:56.489Z,23.70
2019-05-28T10:38:22.643Z,23.80
2019-05-28T10:40:48.886Z,24.00
2019-05-28T10:43:15.040Z,24.10
2019-05-28T10:45:41.714Z,24.10
2019-05-28T10:48:08.032Z,24.20
2019-05-28T10:50:34.263Z,24.20
2019-05-28T10:53:00.434Z,24.20
2019-05-28T10:55:28.138Z,24.20
2019-05-28T10:57:54.311Z,24.10
2019-05-28T11:00:24.116Z,24.10
2019-05-28T11:02:50.267Z,24.00
2019-05-28T11:05:17.209Z,24.00
2019-05-28T11:07:43.416Z,23.90
2019-05-28T11:10:23.737Z,23.90
2019-05-28T11:12:41.018Z,23.90
2019-05-28T11:15:09.566Z,23.90
2019-05-28T11:17:35.934Z,23.90
2019-05-28T11:20:08.375Z,23.80
2019-05-28T11:22:34.692Z,23.80
2019-05-28T11:25:00.936Z,23.80
2019-05-28T11:27:27.166Z,23.80
2019-05-28T11:29:53.344Z,23.80
2019-05-28T11:32:19.559Z,23.80
2019-05-28T11:34:46.030Z,23.80
2019-05-28T11:37:12.257Z,23.70
2019-05-28T11:39:38.402Z,23.70
2019-05-28T11:42:04.620Z,23.70
2019-05-28T11:44:30.773Z,23.70
2019-05-28T11:46:57.001Z,23.70
2019-05-28T11:49:23.138Z,23.70
2019-05-28T11:51:49.369Z,23.70
2019-05-28T11:54:15.612Z,23.70
2019-05-28T11:56:41.883Z,23.70
2019-05-28T11:59:08.042Z,23.70
2019-05-28T12:01:35.487Z,23.70
2019-05-28T12:04:01.827Z,23.70
2019-05-28T12:06:28.008Z,23.70
2019-05-28T12:08:54.327Z,23.80
2019-05-28T12:11:20.616Z,23.80
2019-05-28T12:13:46.851Z,23.80
2019-05-28T12:16:12.995Z,23.90
2019-05-28T12:18:39.271Z,23.90
2019-05-28T12:21:05.424Z,24.10
2019-05-28T12:23:31.619Z,24.10
2019-05-28T12:25:57.776Z,24.20
2019-05-28T12:28:37.129Z,24.20
2019-05-28T12:30:52.057Z,24.20
2019-05-28T12:33:18.811Z,24.30
2019-05-28T12:35:45.380Z,24.30
2019-05-28T12:38:11.592Z,24.40
2019-05-28T12:40:47.564Z,24.40
2019-05-28T12:43:05.868Z,24.50
2019-05-28T12:45:35.971Z,24.50
2019-05-28T12:48:12.290Z,24.40
2019-05-28T12:50:28.373Z,24.40
2019-05-28T12:52:54.659Z,24.40
2019-05-28T12:55:21.404Z,24.40
2019-05-28T12:57:47.628Z,24.40
2019-05-28T13:00:16.098Z,24.40
2019-05-28T13:02:42.309Z,24.40
2019-05-28T13:05:18.173Z,24.40
2019-05-28T13:07:44.720Z,24.30
2019-05-28T13:10:11.739Z,24.30
2019-05-28T13:12:37.896Z,24.30
2019-05-28T13:15:05.821Z,24.30
2019-05-28T13:17:32.096Z,24.30
2019-05-28T13:19:58.348Z,24.40
2019-05-28T13:22:24.463Z,24.40
2019-05-28T13:24:50.645Z,24.40
2019-05-28T13:27:18.508Z,24.50
2019-05-28T13:29:45.273Z,24.50
2019-05-28T13:32:11.417Z,24.50
2019-05-28T13:34:37.649Z,24.50
2019-05-28T13:37:03.799Z,24.50
2019-05-28T13:39:30.136Z,24.50
2019-05-28T13:41:56.312Z,24.50
2019-05-28T13:44:22.518Z,24.40
2019-05-28T13:46:48.920Z,24.40
2019-05-28T13:49:15.211Z,24.40
2019-05-28T13:51:41.468Z,24.40
2019-05-28T13:54:07.696Z,24.40
2019-05-28T13:56:34.154Z,24.40
2019-05-28T13:59:00.398Z,24.30
2019-05-28T14:01:26.557Z,24.30
2019-05-28T14:03:52.758Z,24.30
2019-05-28T14:06:18.923Z,24.30
2019-05-28T14:08:47.351Z,24.30
2019-05-28T14:11:13.268Z,24.30
2019-05-28T14:13:39.479Z,24.30
2019-05-28T14:16:05.621Z,24.30
2019-05-28T14:18:31.821Z,24.30
2019-05-28T14:20:58.041Z,24.30
2019-05-28T14:23:24.177Z,24.30
2019-05-28T14:25:50.399Z,24.30
2019-05-28T14:28:16.542Z,24.30
2019-05-28T14:30:58.711Z,24.40
2019-05-28T14:33:11.165Z,24.40
2019-05-28T14:35:37.392Z,24.40
2019-05-28T14:38:03.542Z,24.40
2019-05-28T14:40:30.215Z,24.40
2019-05-28T14:42:56.502Z,24.40
2019-05-28T14:45:23.958Z,24.40
2019-05-28T14:47:50.604Z,24.40
2019-05-28T14:50:17.208Z,24.40
2019-05-28T14:52:43.358Z,24.30
2019-05-28T14:55:10.174Z,24.30
2019-05-28T14:57:36.886Z,24.20
2019-05-28T15:00:09.900Z,24.20
2019-05-28T15:02:36.118Z,24.20
2019-05-28T15:05:06.455Z,24.20
2019-05-28T15:07:32.598Z,24.20
2019-05-28T15:09:58.870Z,24.10
2019-05-28T15:12:25.023Z,24.10
2019-05-28T15:14:51.236Z,24.10
2019-05-28T15:17:17.381Z,24.10
2019-05-28T15:19:43.656Z,24.20
2019-05-28T15:22:09.881Z,24.20
2019-05-28T15:24:36.041Z,24.20
2019-05-28T15:27:08.822Z,24.30
2019-05-28T15:29:35.031Z,24.30
2019-05-28T15:32:01.334Z,24.30
2019-05-28T15:34:31.127Z,24.30
2019-05-28T15:36:57.339Z,24.30
2019-05-28T15:39:38.952Z,24.20
2019-05-28T15:41:51.615Z,24.20
2019-05-28T15:44:18.145Z,24.10
2019-05-28T15:46:44.391Z,24.00
2019-05-28T15:49:10.599Z,23.90
2019-05-28T15:51:36.905Z,23.70
2019-05-28T15:54:03.643Z,23.60
2019-05-28T15:56:30.107Z,23.50
2019-05-28T15:58:56.265Z,23.40
2019-05-28T16:01:22.482Z,23.20
2019-05-28T16:03:48.985Z,23.10
2019-05-28T16:06:15.302Z,23.00
2019-05-28T16:08:41.561Z,22.80
2019-05-28T16:11:07.836Z,22.70
2019-05-28T16:13:34.014Z,22.60
2019-05-28T16:16:00.541Z,22.50
2019-05-28T16:18:26.774Z,22.40
2019-05-28T16:20:53.008Z,22.30
2019-05-28T16:23:19.174Z,22.20
2019-05-28T16:25:45.454Z,22.10
2019-05-28T16:28:11.602Z,22.10
2019-05-28T16:30:38.009Z,22.00
2019-05-28T16:33:04.161Z,22.00
2019-05-28T16:35:30.382Z,21.90
2019-05-28T16:37:56.860Z,21.90
2019-05-28T16:40:23.004Z,21.80
2019-05-28T16:42:49.250Z,21.80
2019-05-28T16:45:17.802Z,21.70
2019-05-28T16:47:44.031Z,21.70
2019-05-28T16:50:13.386Z,21.60
2019-05-28T16:52:39.213Z,21.60
2019-05-28T16:55:09.071Z,21.60
2019-05-28T16:57:35.373Z,21.50
2019-05-28T17:00:04.525Z,21.40
2019-05-28T17:02:30.731Z,21.50
2019-05-28T17:04:56.875Z,21.40
2019-05-28T17:07:23.295Z,21.40
2019-05-28T17:09:49.465Z,21.30
2019-05-28T17:12:16.114Z,21.30
2019-05-28T17:14:42.272Z,21.20
2019-05-28T17:17:08.609Z,21.20
2019-05-28T17:19:34.816Z,21.10
2019-05-28T17:22:01.018Z,21.10
2019-05-28T17:24:27.169Z,21.00
2019-05-28T17:26:53.371Z,21.00
2019-05-28T17:29:19.518Z,21.00
2019-05-28T17:31:45.732Z,20.90
2019-05-28T17:34:11.872Z,20.90
2019-05-28T17:36:38.084Z,20.90
2019-05-28T17:39:06.823Z,20.90
2019-05-28T17:41:33.036Z,20.80
2019-05-28T17:43:59.191Z,20.80
2019-05-28T17:46:25.456Z,20.80
2019-05-28T17:48:51.913Z,20.70
2019-05-28T17:51:18.259Z,20.70
2019-05-28T17:53:44.417Z,20.60
2019-05-28T17:56:10.909Z,20.60
2019-05-28T17:58:37.137Z,20.60
2019-05-28T18:01:03.288Z,20.50
2019-05-28T18:03:29.495Z,20.50
2019-05-28T18:05:55.662Z,20.50
2019-05-28T18:08:21.908Z,20.40
2019-05-28T18:11:03.140Z,20.40
2019-05-28T18:13:16.174Z,20.30
2019-05-28T18:15:42.313Z,20.20
2019-05-28T18:18:08.692Z,20.20
2019-05-28T18:20:35.138Z,20.20
2019-05-28T18:23:01.356Z,20.10
2019-05-28T18:25:27.515Z,20.10
2019-05-28T18:27:54.471Z,20.00
2019-05-28T18:30:20.617Z,20.00
2019-05-28T18:32:46.831Z,19.90
2019-05-28T18:35:13.232Z,19.90
2019-05-28T18:37:39.515Z,19.90
2019-05-28T18:40:09.279Z,19.80
2019-05-28T18:42:35.595Z,19.80
2019-05-28T18:45:01.872Z,19.80
2019-05-28T18:47:28.400Z,19.70
2019-05-28T18:49:57.051Z,19.70
2019-05-28T18:52:22.656Z,19.70
2019-05-28T18:54:48.797Z,19.70
2019-05-28T18:57:15.050Z,19.60
2019-05-28T18:59:41.415Z,19.60
2019-05-28T19:02:07.713Z,19.60
2019-05-28T19:04:34.011Z,19.60
2019-05-28T19:07:00.159Z,19.60
2019-05-28T19:09:26.568Z,19.60
2019-05-28T19:11:52.800Z,19.60
2019-05-28T19:14:19.109Z,19.50
2019-05-28T19:16:45.565Z,19.50
2019-05-28T19:19:11.989Z,19.50
2019-05-28T19:21:38.438Z,19.50
2019-05-28T19:24:04.757Z,19.50
2019-05-28T19:26:30.905Z,19.40
2019-05-28T19:28:57.213Z,19.40
2019-05-28T19:31:23.464Z,19.40
2019-05-28T19:33:50.030Z,19.40
2019-05-28T19:36:16.991Z,19.40
2019-05-28T19:38:45.850Z,19.30
2019-05-28T19:41:11.524Z,19.30
2019-05-28T19:43:38.152Z,19.30
2019-05-28T19:46:04.308Z,19.30
2019-05-28T19:48:30.537Z,19.20
2019-05-28T19:50:56.754Z,19.20
2019-05-28T19:53:23.040Z,19.20
2019-05-28T19:55:49.531Z,19.20
2019-05-28T19:58:15.702Z,19.20
2019-05-28T20:00:42.055Z,19.20
2019-05-28T20:03:08.288Z,19.20
2019-05-28T20:05:34.497Z,19.20
2019-05-28T20:08:00.743Z,19.20
2019-05-28T20:10:27.236Z,19.20
2019-05-28T20:12:53.371Z,19.10
2019-05-28T20:15:22.547Z,19.10
2019-05-28T20:17:48.491Z,19.10
2019-05-28T20:20:15.779Z,19.10
2019-05-28T20:22:42.184Z,19.10
2019-05-28T20:25:08.818Z,19.10
2019-05-28T20:27:35.053Z,19.10
2019-05-28T20:30:03.138Z,19.10
2019-05-28T20:32:29.313Z,19.10
2019-05-28T20:34:55.511Z,19.00
2019-05-28T20:37:21.662Z,19.00
2019-05-28T20:39:47.865Z,19.00
2019-05-28T20:42:26.079Z,19.00
2019-05-28T20:44:42.155Z,19.00
2019-05-28T20:47:08.895Z,19.00
2019-05-28T20:49:35.398Z,18.90
2019-05-28T20:52:02.710Z,18.90
2019-05-28T20:54:29.380Z,18.90
2019-05-28T20:56:56.706Z,18.90
2019-05-28T20:59:23.731Z,18.80
2019-05-28T21:01:49.886Z,18.80
2019-05-28T21:04:16.037Z,18.80
2019-05-28T21:06:42.761Z,18.80
2019-05-28T21:09:08.906Z,18.80
2019-05-28T21:11:35.295Z,18.80
2019-05-28T21:14:01.426Z,18.70
2019-05-28T21:16:27.666Z,18.70
2019-05-28T21:18:55.235Z,18.70
2019-05-28T21:21:21.981Z,19.10
2019-05-28T21:23:48.150Z,18.70
2019-05-28T21:26:14.357Z,18.70
2019-05-28T21:28:40.743Z,18.60
2019-05-28T21:31:06.935Z,18.60
2019-05-28T21:33:33.086Z,18.60
2019-05-28T21:35:59.531Z,18.60
2019-05-28T21:38:25.746Z,18.60
2019-05-28T21:40:51.979Z,18.50
2019-05-28T21:43:18.138Z,18.50
2019-05-28T21:45:44.349Z,18.40
2019-05-28T21:48:10.624Z,18.40
2019-05-28T21:50:36.845Z,18.40
2019-05-28T21:53:03.682Z,18.30
2019-05-28T21:55:29.924Z,18.30
2019-05-28T21:57:56.066Z,18.20
2019-05-28T22:00:45.010Z,18.20
2019-05-28T22:03:11.252Z,18.20
2019-05-28T22:05:37.479Z,18.10
2019-05-28T22:08:04.883Z,18.00
2019-05-28T22:10:31.743Z,18.00
2019-05-28T22:12:57.976Z,18.00
2019-05-28T22:15:24.117Z,17.90
2019-05-28T22:17:50.364Z,17.90
2019-05-28T22:20:16.761Z,17.90
2019-05-28T22:22:42.972Z,17.80
2019-05-28T22:25:09.615Z,17.80
2019-05-28T22:27:35.828Z,17.80
2019-05-28T22:30:07.773Z,17.70
2019-05-28T22:32:33.964Z,17.70
2019-05-28T22:35:00.109Z,17.70
2019-05-28T22:37:26.339Z,17.70
2019-05-28T22:39:52.502Z,17.70
2019-05-28T22:42:18.825Z,17.70
2019-05-28T22:44:44.965Z,17.60
2019-05-28T22:47:11.177Z,17.60
2019-05-28T22:49:37.379Z,17.60
2019-05-28T22:52:03.909Z,17.60
2019-05-28T22:54:30.115Z,17.60
2019-05-28T22:56:56.331Z,17.60
2019-05-28T22:59:22.472Z,17.60
2019-05-28T23:01:48.906Z,17.60
2019-05-28T23:04:16.259Z,17.60
2019-05-28T23:06:42.470Z,17.60
2019-05-28T23:09:09.853Z,17.60
2019-05-28T23:11:36.158Z,17.60
2019-05-28T23:14:02.473Z,17.60
2019-05-28T23:16:28.623Z,17.60
2019-05-28T23:18:54.924Z,17.60
2019-05-28T23:21:21.081Z,17.60
2019-05-28T23:23:47.297Z,17.60
2019-05-28T23:26:13.446Z,17.60
2019-05-28T23:28:39.664Z,17.70
2019-05-28T23:31:05.958Z,17.70
2019-05-28T23:33:32.249Z,17.70
2019-05-28T23:35:58.888Z,17.70
2019-05-28T23:38:25.108Z,17.70
2019-05-28T23:40:51.251Z,17.70
2019-05-28T23:43:17.462Z,17.80
2019-05-28T23:45:43.612Z,17.80
2019-05-28T23:48:15.009Z,17.80
2019-05-28T23:50:37.995Z,17.80
2019-05-28T23:53:04.497Z,17.80
2019-05-28T23:55:31.763Z,17.90
2019-05-28T23:57:57.977Z,17.90
